Welcome to Northern Hawkes Bay. New Zealand.
PWS Header
      nz Flag



Hit Counter


W3C Valid W3C Valid logo


    Wairoa

Select any of the Stations below to visit their websites.










Historic Data from Weather Underground
Select the location of interest below. Wairoa is the default. Please have patience, this Data is slow to load in.
Northern Hawkes Bay Historical Data
Daily Summary for October 10, 2017 Units:  Metric    English   Both
« Previous Day
Next Day »
Daily Weekly Monthly Yearly Custom
  High: Low: Average:
Temperature: 22.5 °C 10.9 °C 15.8 °C
Dew Point: 17.6 °C 10.7 °C 13.2 °C
Humidity: 99% 59% 86%
Wind Speed: 12.2km/h 0.0km/h 2.8km/h
Wind Gust: 20.9km/h - -
Wind- - SW
Pressure: 1008.4 hPa 1001.9 hPa -
Precipitation: 1.5 mm    
Historical Graphs
 
 
Tabular Data for October 10, 2017
Time Temperature Dew Point Pressure Wind Wind Speed Wind Gust Humidity Rainfall Rate (Hourly) solar
00:03 13.2 °C 12.9 °C 1008.4 hPa Calm   2.6 km/h 98% 0.0 mm 0 W/m2
00:08 13.2 °C 13.1 °C 1008.4 hPa Calm   2.6 km/h 99% 0.0 mm 0 W/m2
00:13 13.1 °C 12.9 °C 1008.4 hPa Calm     99% 0.0 mm 0 W/m2
00:18 13.1 °C 12.9 °C 1008.4 hPa Calm     99% 0.0 mm 0 W/m2
00:23 13.0 °C 12.8 °C 1008.4 hPa Calm     99% 0.0 mm 0 W/m2
00:28 13.0 °C 12.8 °C 1008.4 hPa Calm   1.1 km/h 99% 0.0 mm 0 W/m2
00:33 13.0 °C 12.8 °C 1008.0 hPa Calm   1.1 km/h 99% 0.0 mm 0 W/m2
00:38 13.0 °C 12.8 °C 1008.0 hPa Calm   3.5 km/h 99% 0.0 mm 0 W/m2
00:43 12.9 °C 12.4 °C 1008.0 hPa Calm   3.5 km/h 97% 0.0 mm 0 W/m2
00:48 12.9 °C 12.4 °C 1008.0 hPa SSW 2.6 km/h 3.5 km/h 97% 0.0 mm 0 W/m2
00:53 12.9 °C 12.4 °C 1007.7 hPa SSW 3.5 km/h 5.0 km/h 97% 0.0 mm 0 W/m2
00:58 12.9 °C 12.4 °C 1007.7 hPa South 2.6 km/h 6.1 km/h 97% 0.0 mm 0 W/m2
01:03 12.9 °C 12.4 °C 1007.7 hPa SSW 2.6 km/h 7.2 km/h 97% 0.0 mm 0 W/m2
01:08 13.0 °C 12.8 °C 1007.3 hPa SW 3.5 km/h 7.2 km/h 99% 0.0 mm 0 W/m2
01:13 13.0 °C 12.8 °C 1007.7 hPa SW 3.5 km/h 6.1 km/h 99% 0.0 mm 0 W/m2
01:18 13.0 °C 12.8 °C 1007.7 hPa Calm   6.1 km/h 99% 0.0 mm 0 W/m2
01:23 13.0 °C 12.8 °C 1007.7 hPa Calm   6.1 km/h 99% 0.3 mm 0 W/m2
01:28 13.0 °C 12.8 °C 1007.7 hPa Calm     99% 0.3 mm 0 W/m2
01:33 13.0 °C 12.8 °C 1007.7 hPa Calm     99% 0.3 mm 0 W/m2
01:38 13.0 °C 12.8 °C 1007.3 hPa Calm     99% 0.3 mm 0 W/m2
01:43 13.0 °C 12.8 °C 1007.3 hPa Calm     99% 0.5 mm 0 W/m2
01:48 13.0 °C 12.8 °C 1007.3 hPa South 1.1 km/h 2.6 km/h 99% 0.5 mm 0 W/m2
01:53 13.1 °C 12.9 °C 1007.3 hPa Calm   3.5 km/h 99% 0.5 mm 0 W/m2
01:58 13.1 °C 12.9 °C 1007.3 hPa Calm   3.5 km/h 99% 0.5 mm 0 W/m2
02:03 13.0 °C 12.8 °C 1007.0 hPa Calm   1.1 km/h 99% 0.5 mm 0 W/m2
02:08 12.9 °C 12.4 °C 1007.3 hPa Calm     97% 0.5 mm 0 W/m2
02:13 13.0 °C 12.8 °C 1007.3 hPa North 1.1 km/h 2.6 km/h 99% 0.5 mm 0 W/m2
02:18 13.0 °C 12.8 °C 1007.3 hPa Calm   2.6 km/h 99% 0.5 mm 0 W/m2
02:23 12.9 °C 12.4 °C 1007.3 hPa Calm   2.6 km/h 97% 0.3 mm 0 W/m2
02:28 12.9 °C 12.4 °C 1007.0 hPa Calm   1.1 km/h 97% 0.3 mm 0 W/m2
02:33 12.9 °C 12.4 °C 1007.0 hPa Calm     97% 0.3 mm 0 W/m2
02:38 12.9 °C 12.4 °C 1007.0 hPa NW 2.6 km/h 3.5 km/h 97% 0.3 mm 0 W/m2
02:43 13.0 °C 12.8 °C 1007.0 hPa NNW 1.1 km/h 3.5 km/h 99% 0.0 mm 0 W/m2
02:48 12.9 °C 12.4 °C 1007.0 hPa Calm   2.6 km/h 97% 0.0 mm 0 W/m2
02:53 12.9 °C 12.4 °C 1006.7 hPa NNW 1.1 km/h 3.5 km/h 97% 0.0 mm 0 W/m2
02:58 12.9 °C 12.4 °C 1006.7 hPa NNW 1.1 km/h 3.5 km/h 97% 0.0 mm 0 W/m2
03:03 12.8 °C 12.3 °C 1006.7 hPa NW 1.1 km/h 3.5 km/h 97% 0.0 mm 0 W/m2
03:08 12.7 °C 12.2 °C 1006.7 hPa NW 2.6 km/h 5.0 km/h 97% 0.0 mm 0 W/m2
03:13 12.6 °C 12.2 °C 1006.7 hPa NW 3.5 km/h 5.0 km/h 97% 0.0 mm 0 W/m2
03:18 12.5 °C 12.1 °C 1006.7 hPa NW 3.5 km/h 7.2 km/h 97% 0.0 mm 0 W/m2
03:23 12.5 °C 12.1 °C 1006.7 hPa NW 3.5 km/h 7.2 km/h 97% 0.0 mm 0 W/m2
03:28 12.4 °C 11.9 °C 1006.7 hPa Calm   6.1 km/h 97% 0.0 mm 0 W/m2
03:33 12.3 °C 11.8 °C 1006.7 hPa Calm   5.0 km/h 97% 0.0 mm 0 W/m2
03:38 12.3 °C 11.8 °C 1006.7 hPa NNE 2.6 km/h 3.5 km/h 97% 0.0 mm 0 W/m2
03:43 12.2 °C 11.7 °C 1006.3 hPa North 1.1 km/h 3.5 km/h 97% 0.0 mm 0 W/m2
03:48 12.2 °C 11.7 °C 1006.3 hPa North 1.1 km/h 3.5 km/h 97% 0.0 mm 0 W/m2
03:53 12.2 °C 11.7 °C 1006.3 hPa NNE 1.1 km/h 3.5 km/h 97% 0.0 mm 0 W/m2
03:58 12.2 °C 11.7 °C 1006.3 hPa North 1.1 km/h 5.0 km/h 97% 0.0 mm 0 W/m2
04:03 12.2 °C 11.7 °C 1006.3 hPa Calm   5.0 km/h 97% 0.0 mm 0 W/m2
04:08 12.1 °C 11.7 °C 1006.0 hPa Calm   3.5 km/h 97% 0.0 mm 0 W/m2
04:18 11.9 °C 11.6 °C 1006.0 hPa Calm   1.1 km/h 98% 0.0 mm 0 W/m2
04:23 11.9 °C 11.6 °C 1006.0 hPa Calm   1.1 km/h 98% 0.0 mm 0 W/m2
04:28 11.8 °C 11.5 °C 1006.0 hPa Calm   1.1 km/h 98% 0.0 mm 0 W/m2
04:33 11.7 °C 11.4 °C 1006.0 hPa Calm   2.6 km/h 98% 0.0 mm 0 W/m2
04:38 11.7 °C 11.4 °C 1006.0 hPa NNW 1.1 km/h 3.5 km/h 98% 0.0 mm 0 W/m2
04:48 11.6 °C 11.3 °C 1006.0 hPa North 1.1 km/h 3.5 km/h 98% 0.0 mm 0 W/m2
04:53 11.5 °C 11.2 °C 1006.0 hPa Calm   3.5 km/h 98% 0.0 mm 0 W/m2
04:58 11.5 °C 11.2 °C 1006.0 hPa NNE 1.1 km/h 2.6 km/h 98% 0.0 mm 0 W/m2
05:03 11.5 °C 11.2 °C 1006.0 hPa North 1.1 km/h 2.6 km/h 98% 0.0 mm 0 W/m2
05:08 11.4 °C 11.1 °C 1006.0 hPa NNW 2.6 km/h 5.0 km/h 98% 0.0 mm 0 W/m2
05:13 11.3 °C 11.0 °C 1005.6 hPa NW 1.1 km/h 5.0 km/h 98% 0.0 mm 0 W/m2
05:18 11.3 °C 11.0 °C 1005.6 hPa NW 2.6 km/h 3.5 km/h 98% 0.0 mm 0 W/m2
05:23 11.2 °C 10.9 °C 1005.6 hPa NNW 1.1 km/h 3.5 km/h 98% 0.0 mm 0 W/m2
05:28 11.1 °C 10.8 °C 1005.6 hPa Calm   3.5 km/h 98% 0.0 mm 0 W/m2
05:33 11.1 °C 10.8 °C 1005.6 hPa North 1.1 km/h 2.6 km/h 98% 0.0 mm 0 W/m2
05:38 11.0 °C 10.7 °C 1005.6 hPa NNW 2.6 km/h 3.5 km/h 98% 0.0 mm 0 W/m2
05:43 10.9 °C 10.8 °C 1005.6 hPa NW 2.6 km/h 3.5 km/h 99% 0.0 mm 0 W/m2
05:48 10.9 °C 10.8 °C 1005.6 hPa NW 1.1 km/h 3.5 km/h 99% 0.0 mm 0 W/m2
05:53 10.9 °C 10.8 °C 1005.6 hPa Calm   3.5 km/h 99% 0.0 mm 0 W/m2
05:58 10.9 °C 10.8 °C 1005.6 hPa NNW 1.1 km/h 2.6 km/h 99% 0.0 mm 0 W/m2
06:04 10.9 °C 10.8 °C 1005.6 hPa NW 3.5 km/h 5.0 km/h 99% 0.0 mm 0 W/m2
06:09 10.9 °C 10.8 °C 1005.6 hPa NNW 5.0 km/h 7.2 km/h 99% 0.0 mm 0 W/m2
06:14 11.0 °C 10.7 °C 1006.0 hPa NW 3.5 km/h 7.2 km/h 98% 0.0 mm 0 W/m2
06:19 11.1 °C 10.8 °C 1005.6 hPa NNW 1.1 km/h 7.2 km/h 98% 0.0 mm 0 W/m2
06:24 11.1 °C 10.8 °C 1005.6 hPa NNW 1.1 km/h 7.2 km/h 98% 0.0 mm 0 W/m2
06:29 11.1 °C 10.8 °C 1005.6 hPa NNW 2.6 km/h 7.2 km/h 98% 0.0 mm 0 W/m2
06:34 11.2 °C 10.9 °C 1005.6 hPa Calm   5.0 km/h 98% 0.0 mm 0 W/m2
06:39 11.2 °C 10.9 °C 1006.0 hPa NNW 1.1 km/h 5.0 km/h 98% 0.0 mm 0 W/m2
06:44 11.2 °C 10.9 °C 1006.0 hPa NW 2.6 km/h 5.0 km/h 98% 0.0 mm 4 W/m2
06:49 11.2 °C 10.9 °C 1005.6 hPa NW 3.5 km/h 5.0 km/h 98% 0.0 mm 6 W/m2
06:54 11.2 °C 10.9 °C 1005.6 hPa NNW 1.1 km/h 5.0 km/h 98% 0.0 mm 10 W/m2
06:59 11.2 °C 10.9 °C 1006.0 hPa Calm   5.0 km/h 98% 0.0 mm 21 W/m2
07:04 11.3 °C 11.0 °C 1006.0 hPa North 5.0 km/h 7.2 km/h 98% 0.0 mm 21 W/m2
07:09 11.3 °C 11.0 °C 1006.0 hPa North 1.1 km/h 8.7 km/h 98% 0.0 mm 41 W/m2
07:14 11.4 °C 11.1 °C 1006.0 hPa North 3.5 km/h 8.7 km/h 98% 0.0 mm 50 W/m2
07:19 11.6 °C 11.3 °C 1006.0 hPa NNW 1.1 km/h 7.2 km/h 98% 0.0 mm 93 W/m2
07:24 12.0 °C 11.6 °C 1006.0 hPa NNW 5.0 km/h 7.2 km/h 97% 0.0 mm 127 W/m2
07:29 12.2 °C 11.7 °C 1006.3 hPa NNW 3.5 km/h 8.7 km/h 97% 0.0 mm 149 W/m2
07:34 12.5 °C 12.1 °C 1006.0 hPa NNW 3.5 km/h 8.7 km/h 97% 0.0 mm 174 W/m2
07:39 12.9 °C 12.4 °C 1006.3 hPa NNW 2.6 km/h 7.2 km/h 97% 0.0 mm 170 W/m2
07:44 13.2 °C 13.1 °C 1006.3 hPa NW 3.5 km/h 9.7 km/h 99% 0.0 mm 184 W/m2
07:49 13.3 °C 13.2 °C 1006.3 hPa NW 6.1 km/h 12.2 km/h 99% 0.0 mm 194 W/m2
07:54 13.2 °C 13.1 °C 1006.3 hPa NNW 5.0 km/h 12.2 km/h 99% 0.0 mm 191 W/m2
07:59 13.5 °C 13.3 °C 1006.3 hPa NNW 7.2 km/h 11.1 km/h 99% 0.0 mm 195 W/m2
08:04 13.5 °C 13.3 °C 1006.3 hPa NNW 3.5 km/h 11.1 km/h 99% 0.0 mm 204 W/m2
08:09 13.8 °C 13.7 °C 1006.3 hPa NNW 5.0 km/h 9.7 km/h 99% 0.0 mm 215 W/m2
08:14 13.9 °C 13.8 °C 1006.3 hPa NNW 5.0 km/h 11.1 km/h 99% 0.0 mm 219 W/m2
08:19 14.2 °C 14.1 °C 1006.3 hPa NNW 6.1 km/h 11.1 km/h 99% 0.0 mm 217 W/m2
08:24 14.6 °C 14.4 °C 1006.3 hPa North 3.5 km/h 9.7 km/h 99% 0.0 mm 223 W/m2
08:29 15.0 °C 14.8 °C 1006.3 hPa North 3.5 km/h 8.7 km/h 99% 0.0 mm 235 W/m2
08:34 15.4 °C 15.1 °C 1006.3 hPa NNW 2.6 km/h 6.1 km/h 98% 0.0 mm 249 W/m2
08:39 15.4 °C 14.6 °C 1006.3 hPa NNW 3.5 km/h 9.7 km/h 95% 0.0 mm 238 W/m2
08:44 15.7 °C 14.6 °C 1006.7 hPa NNW 5.0 km/h 9.7 km/h 93% 0.0 mm 243 W/m2
08:49 15.9 °C 14.3 °C 1006.7 hPa NNW 6.1 km/h 9.7 km/h 90% 0.0 mm 268 W/m2
08:54 16.0 °C 14.0 °C 1006.7 hPa North 3.5 km/h 7.2 km/h 88% 0.0 mm 273 W/m2
08:59 16.5 °C 14.5 °C 1006.3 hPa North 2.6 km/h 7.2 km/h 88% 0.0 mm 266 W/m2
09:04 16.8 °C 14.4 °C 1006.7 hPa North 3.5 km/h 7.2 km/h 86% 0.0 mm 272 W/m2
09:09 16.8 °C 14.1 °C 1006.3 hPa NNW 5.0 km/h 8.7 km/h 84% 0.0 mm 282 W/m2
09:14 16.8 °C 14.1 °C 1006.3 hPa North 5.0 km/h 8.7 km/h 84% 0.0 mm 292 W/m2
09:19 16.9 °C 14.2 °C 1006.3 hPa North 7.2 km/h 11.1 km/h 84% 0.0 mm 308 W/m2
09:24 17.3 °C 14.4 °C 1006.3 hPa NNE 2.6 km/h 11.1 km/h 83% 0.0 mm 324 W/m2
09:29 17.5 °C 14.4 °C 1006.7 hPa NNE 6.1 km/h 11.1 km/h 82% 0.0 mm 379 W/m2
09:34 17.2 °C 14.1 °C 1006.3 hPa North 1.1 km/h 9.7 km/h 82% 0.0 mm 346 W/m2
09:39 17.4 °C 14.1 °C 1006.3 hPa North 5.0 km/h 9.7 km/h 81% 0.3 mm 171 W/m2
09:49 18.2 °C 14.7 °C 1006.3 hPa NNE 3.5 km/h 8.7 km/h 80% 0.3 mm 375 W/m2
09:54 18.2 °C 14.5 °C 1006.3 hPa NE 6.1 km/h 9.7 km/h 79% 0.3 mm 403 W/m2
09:59 17.8 °C 14.3 °C 1006.7 hPa North 2.6 km/h 11.1 km/h 80% 0.3 mm 394 W/m2
10:04 17.9 °C 14.6 °C 1006.3 hPa NNW 6.1 km/h 11.1 km/h 81% 0.3 mm 390 W/m2
10:09 18.4 °C 14.9 °C 1006.3 hPa North 3.5 km/h 8.7 km/h 80% 0.3 mm 389 W/m2
10:14 18.8 °C 15.1 °C 1006.3 hPa NNE 3.5 km/h 8.7 km/h 79% 0.3 mm 411 W/m2
10:19 19.4 °C 15.3 °C 1006.0 hPa North 6.1 km/h 11.1 km/h 77% 0.3 mm 79 W/m2
10:21 19.0 °C 14.5 °C 1006.0 hPa NNW 3.5 km/h 11.1 km/h 75% 0.3 mm 259 W/m2
10:26 19.2 °C 14.7 °C 1006.0 hPa NNW 1.1 km/h 11.1 km/h 75% 0.3 mm 455 W/m2
10:31 19.5 °C 14.9 °C 1006.0 hPa ENE 6.1 km/h 11.1 km/h 75% 0.3 mm 451 W/m2
10:36 19.3 °C 14.8 °C 1005.6 hPa ENE 1.1 km/h 11.1 km/h 75% 0.3 mm 474 W/m2
10:41 19.7 °C 14.9 °C 1006.0 hPa NE 1.1 km/h 8.7 km/h 74% 0.0 mm 473 W/m2
10:46 20.1 °C 15.1 °C 1005.6 hPa NNE 3.5 km/h 8.7 km/h 73% 0.0 mm 80 W/m2
10:51 19.3 °C 13.9 °C 1005.6 hPa North 6.1 km/h 8.7 km/h 71% 0.0 mm 489 W/m2
10:56 19.2 °C 14.4 °C 1005.6 hPa NNW 3.5 km/h 8.7 km/h 74% 0.0 mm 501 W/m2
11:01 19.1 °C 14.2 °C 1005.6 hPa NNW 2.6 km/h 12.2 km/h 73% 0.0 mm 519 W/m2
11:06 19.2 °C 14.4 °C 1005.6 hPa NNW 2.6 km/h 12.2 km/h 74% 0.0 mm 95 W/m2
11:11 19.3 °C 14.6 °C 1005.6 hPa NW 2.6 km/h 9.7 km/h 74% 0.0 mm 547 W/m2
11:16 19.7 °C 14.9 °C 1005.3 hPa NNW 2.6 km/h 9.7 km/h 74% 0.0 mm 561 W/m2
11:21 19.7 °C 14.5 °C 1005.3 hPa Calm   12.2 km/h 72% 0.0 mm 572 W/m2
11:26 20.0 °C 14.8 °C 1005.3 hPa North 3.5 km/h 12.2 km/h 72% 0.0 mm 595 W/m2
11:31 20.2 °C 15.0 °C 1005.3 hPa NNW 2.6 km/h 7.2 km/h 72% 0.0 mm 610 W/m2
11:36 20.2 °C 14.1 °C 1005.3 hPa NNW 1.1 km/h 9.7 km/h 68% 0.0 mm 581 W/m2
11:41 20.5 °C 14.4 °C 1005.0 hPa North 6.1 km/h 9.7 km/h 68% 0.0 mm 660 W/m2
11:46 20.5 °C 13.9 °C 1005.0 hPa NNE 5.0 km/h 15.8 km/h 66% 0.0 mm 507 W/m2
11:56 20.5 °C 13.7 °C 1005.0 hPa NW 3.5 km/h 13.4 km/h 65% 0.0 mm 154 W/m2
12:06 21.0 °C 13.9 °C 1004.6 hPa NW 1.1 km/h 8.7 km/h 64% 0.0 mm 707 W/m2
12:11 21.9 °C 14.3 °C 1004.3 hPa NNE 2.6 km/h 7.2 km/h 62% 0.0 mm 726 W/m2
12:16 21.6 °C 14.0 °C 1004.6 hPa Calm   7.2 km/h 62% 0.0 mm 713 W/m2
12:21 21.7 °C 14.1 °C 1004.6 hPa NW 3.5 km/h 6.1 km/h 62% 0.0 mm 741 W/m2
12:26 21.8 °C 13.4 °C 1004.3 hPa Calm   6.1 km/h 59% 0.0 mm 873 W/m2
12:31 22.2 °C 15.1 °C 1004.3 hPa ESE 5.0 km/h 9.7 km/h 64% 0.0 mm 914 W/m2
12:36 21.1 °C 14.5 °C 1004.3 hPa SSE 11.1 km/h 17.2 km/h 66% 0.0 mm 188 W/m2
12:41 18.8 °C 14.7 °C 1004.3 hPa South 11.1 km/h 20.9 km/h 77% 0.0 mm 162 W/m2
12:46 17.7 °C 14.8 °C 1004.3 hPa SSW 3.5 km/h 20.9 km/h 83% 0.0 mm 209 W/m2
12:51 17.6 °C 15.1 °C 1004.3 hPa South 3.5 km/h 15.8 km/h 85% 0.0 mm 162 W/m2
12:56 17.2 °C 14.5 °C 1004.3 hPa South 5.0 km/h 12.2 km/h 84% 0.0 mm 150 W/m2
13:01 17.0 °C 14.4 °C 1004.3 hPa South 3.5 km/h 11.1 km/h 85% 0.0 mm 153 W/m2
13:06 17.2 °C 14.7 °C 1004.3 hPa Calm   12.2 km/h 85% 0.0 mm 760 W/m2
13:11 18.6 °C 16.2 °C 1003.9 hPa SSE 2.6 km/h 12.2 km/h 86% 0.0 mm 815 W/m2
13:16 19.0 °C 15.7 °C 1003.9 hPa Calm   12.2 km/h 81% 0.0 mm 783 W/m2
13:21 19.8 °C 16.1 °C 1003.9 hPa SE 2.6 km/h 12.2 km/h 79% 0.0 mm 766 W/m2
13:26 19.8 °C 15.9 °C 1003.9 hPa SE 5.0 km/h 11.1 km/h 78% 0.0 mm 270 W/m2
13:31 18.8 °C 15.3 °C 1003.9 hPa SE 5.0 km/h 13.4 km/h 80% 0.0 mm 757 W/m2
13:36 19.1 °C 15.4 °C 1003.6 hPa SSE 5.0 km/h 17.2 km/h 79% 0.0 mm 741 W/m2
13:40 19.5 °C 15.8 °C 1003.6 hPa SSE 7.2 km/h 17.2 km/h 79% 0.0 mm 742 W/m2
13:45 19.5 °C 15.4 °C 1003.6 hPa South 7.2 km/h 14.8 km/h 77% 0.0 mm 745 W/m2
13:50 19.6 °C 15.4 °C 1003.6 hPa Calm   12.2 km/h 77% 0.0 mm 714 W/m2
13:55 20.0 °C 15.4 °C 1003.6 hPa SSE 1.1 km/h 12.2 km/h 75% 0.0 mm 773 W/m2
14:00 20.5 °C 15.9 °C 1003.3 hPa SSE 5.0 km/h 12.2 km/h 75% 0.0 mm 813 W/m2
14:05 20.6 °C 15.6 °C 1003.6 hPa SSE 2.6 km/h 11.1 km/h 73% 0.0 mm 349 W/m2
14:10 20.1 °C 15.1 °C 1003.3 hPa SSE 7.2 km/h 11.1 km/h 73% 0.0 mm 181 W/m2
14:15 18.7 °C 14.8 °C 1003.6 hPa South 6.1 km/h 12.2 km/h 78% 0.0 mm 112 W/m2
14:20 17.9 °C 14.6 °C 1003.6 hPa SSE 1.1 km/h 12.2 km/h 81% 0.0 mm 111 W/m2
14:26 17.4 °C 14.7 °C 1003.6 hPa Calm   11.1 km/h 84% 0.0 mm 128 W/m2
14:31 16.9 °C 14.7 °C 1003.6 hPa SSE 3.5 km/h 8.7 km/h 87% 0.3 mm 145 W/m2
14:36 16.9 °C 14.9 °C 1003.6 hPa SE 2.6 km/h 7.2 km/h 88% 0.3 mm 171 W/m2
14:41 16.9 °C 14.9 °C 1003.3 hPa Calm   6.1 km/h 88% 0.3 mm 248 W/m2
14:46 17.0 °C 14.4 °C 1003.3 hPa ESE 2.6 km/h 11.1 km/h 85% 0.3 mm 221 W/m2
14:51 17.8 °C 15.4 °C 1003.3 hPa ESE 3.5 km/h 11.1 km/h 86% 0.3 mm 763 W/m2
14:56 19.1 °C 16.2 °C 1003.3 hPa East 8.7 km/h 12.2 km/h 83% 0.3 mm 677 W/m2
15:01 19.4 °C 15.5 °C 1003.3 hPa East 8.7 km/h 12.2 km/h 78% 0.3 mm 550 W/m2
15:06 19.5 °C 15.4 °C 1002.9 hPa ENE 5.0 km/h 12.2 km/h 77% 0.3 mm 569 W/m2
15:11 20.2 °C 15.8 °C 1002.9 hPa East 7.2 km/h 11.1 km/h 76% 0.3 mm 565 W/m2
15:16 19.9 °C 15.6 °C 1002.9 hPa ENE 3.5 km/h 13.4 km/h 76% 0.3 mm 281 W/m2
15:21 19.9 °C 15.3 °C 1002.9 hPa ENE 8.7 km/h 13.4 km/h 75% 0.3 mm 507 W/m2
15:26 19.7 °C 14.9 °C 1002.9 hPa East 3.5 km/h 13.4 km/h 74% 0.3 mm 447 W/m2
15:31 20.0 °C 14.6 °C 1002.6 hPa ESE 5.0 km/h 13.4 km/h 71% 0.0 mm 516 W/m2
15:36 20.0 °C 14.6 °C 1002.6 hPa ESE 8.7 km/h 14.8 km/h 71% 0.0 mm 459 W/m2
15:41 19.4 °C 14.7 °C 1002.6 hPa ESE 6.1 km/h 17.2 km/h 74% 0.0 mm 259 W/m2
15:46 18.9 °C 14.6 °C 1002.6 hPa East 7.2 km/h 17.2 km/h 76% 0.0 mm 89 W/m2
15:51 18.5 °C 14.4 °C 1002.6 hPa East 5.0 km/h 12.2 km/h 77% 0.0 mm 92 W/m2
16:01 18.9 °C 14.6 °C 1002.6 hPa ESE 1.1 km/h 7.2 km/h 76% 0.0 mm 85 W/m2
16:06 18.6 °C 14.5 °C 1002.6 hPa East 3.5 km/h 8.7 km/h 77% 0.0 mm 78 W/m2
16:11 18.5 °C 14.8 °C 1002.6 hPa East 1.1 km/h 8.7 km/h 79% 0.0 mm 122 W/m2
16:17 18.5 °C 15.4 °C 1002.6 hPa Calm   6.1 km/h 82% 0.3 mm 148 W/m2
16:22 18.9 °C 16.3 °C 1002.6 hPa Calm   5.0 km/h 85% 0.3 mm 340 W/m2
16:27 20.6 °C 17.6 °C 1002.6 hPa Calm   1.1 km/h 83% 0.3 mm 173 W/m2
16:32 20.8 °C 16.6 °C 1002.6 hPa Calm   3.5 km/h 77% 0.3 mm 423 W/m2
16:42 20.6 °C 16.4 °C 1002.6 hPa East 1.1 km/h 3.5 km/h 77% 0.3 mm 127 W/m2
16:47 19.7 °C 15.9 °C 1002.6 hPa ENE 1.1 km/h 3.5 km/h 79% 0.3 mm 189 W/m2
17:04 20.3 °C 15.9 °C 1002.3 hPa ENE 5.0 km/h 11.1 km/h 76% 0.3 mm 289 W/m2
17:09 21.1 °C 15.7 °C 1002.3 hPa ENE 3.5 km/h 11.1 km/h 71% 0.3 mm 295 W/m2
17:14 21.8 °C 15.7 °C 1002.3 hPa NE 3.5 km/h 9.7 km/h 68% 0.3 mm 276 W/m2
17:19 22.1 °C 14.7 °C 1002.6 hPa NE 3.5 km/h 9.7 km/h 63% 0.0 mm 263 W/m2
17:24 22.5 °C 14.9 °C 1002.3 hPa NNE 3.5 km/h 9.7 km/h 62% 0.0 mm 226 W/m2
17:29 21.6 °C 14.8 °C 1002.3 hPa NNE 3.5 km/h 8.7 km/h 65% 0.0 mm 81 W/m2
17:34 20.5 °C 14.6 °C 1001.9 hPa North 1.1 km/h 8.7 km/h 69% 0.0 mm 71 W/m2
17:39 19.8 °C 14.8 °C 1001.9 hPa Calm   8.7 km/h 73% 0.0 mm 75 W/m2
17:44 19.5 °C 14.8 °C 1001.9 hPa NNE 2.6 km/h 7.2 km/h 74% 0.0 mm 111 W/m2
17:49 19.9 °C 15.6 °C 1001.9 hPa Calm   7.2 km/h 76% 0.0 mm 101 W/m2
17:54 19.9 °C 15.2 °C 1002.3 hPa North 1.1 km/h 7.2 km/h 74% 0.0 mm 91 W/m2
18:00 19.5 °C 14.9 °C 1002.3 hPa North 5.0 km/h 8.7 km/h 75% 0.0 mm 71 W/m2
18:05 19.3 °C 14.8 °C 1002.3 hPa North 7.2 km/h 15.8 km/h 75% 0.0 mm 64 W/m2
18:10 19.2 °C 13.2 °C 1002.3 hPa NNW 11.1 km/h 19.5 km/h 68% 0.0 mm 65 W/m2
18:15 19.1 °C 12.6 °C 1002.3 hPa NNW 5.0 km/h 20.9 km/h 66% 0.0 mm 76 W/m2
18:20 19.1 °C 13.1 °C 1002.3 hPa NNW 7.2 km/h 20.9 km/h 68% 0.0 mm 82 W/m2
18:25 19.1 °C 12.6 °C 1002.3 hPa NW 12.2 km/h 19.5 km/h 66% 0.0 mm 66 W/m2
18:30 18.9 °C 12.4 °C 1002.6 hPa NW 9.7 km/h 19.5 km/h 66% 0.0 mm 47 W/m2
18:35 18.7 °C 12.2 °C 1002.6 hPa NW 9.7 km/h 18.3 km/h 66% 0.0 mm 35 W/m2
18:40 18.5 °C 12.1 °C 1002.6 hPa NNW 9.7 km/h 18.3 km/h 66% 0.0 mm 27 W/m2
18:46 18.4 °C 12.2 °C 1002.6 hPa NNW 3.5 km/h 14.8 km/h 67% 0.0 mm 19 W/m2
18:51 18.2 °C 12.2 °C 1002.6 hPa North 7.2 km/h 17.2 km/h 68% 0.0 mm 12 W/m2
18:56 18.1 °C 12.1 °C 1002.6 hPa NNW 7.2 km/h 17.2 km/h 68% 0.0 mm 8 W/m2
19:01 17.9 °C 12.3 °C 1002.3 hPa NNW 2.6 km/h 12.2 km/h 70% 0.0 mm 6 W/m2
19:06 17.7 °C 12.4 °C 1002.6 hPa NNW 3.5 km/h 12.2 km/h 71% 0.0 mm 5 W/m2
19:11 17.6 °C 12.5 °C 1002.6 hPa Calm   12.2 km/h 72% 0.0 mm 3 W/m2
19:21 17.4 °C 12.7 °C 1002.6 hPa NNW 3.5 km/h 6.1 km/h 74% 0.0 mm 0 W/m2
19:26 17.4 °C 12.7 °C 1002.6 hPa NNW 1.1 km/h 7.2 km/h 74% 0.0 mm 0 W/m2
19:31 17.3 °C 12.8 °C 1002.6 hPa North 1.1 km/h 8.7 km/h 75% 0.0 mm 0 W/m2
19:36 17.2 °C 12.7 °C 1002.6 hPa North 1.1 km/h 8.7 km/h 75% 0.0 mm 0 W/m2
19:41 17.1 °C 12.7 °C 1002.6 hPa North 2.6 km/h 6.1 km/h 75% 0.0 mm 0 W/m2
19:46 17.0 °C 12.6 °C 1002.6 hPa North 1.1 km/h 6.1 km/h 75% 0.0 mm 0 W/m2
19:51 16.9 °C 12.7 °C 1002.6 hPa Calm   6.1 km/h 76% 0.0 mm 0 W/m2
19:56 16.7 °C 12.7 °C 1002.6 hPa NNW 2.6 km/h 5.0 km/h 77% 0.0 mm 0 W/m2
20:01 16.7 °C 12.7 °C 1002.6 hPa North 5.0 km/h 8.7 km/h 77% 0.0 mm 0 W/m2
20:06 16.7 °C 12.7 °C 1002.6 hPa North 2.6 km/h 11.1 km/h 77% 0.0 mm 0 W/m2
20:11 16.7 °C 12.7 °C 1002.6 hPa North 2.6 km/h 11.1 km/h 77% 0.0 mm 0 W/m2
20:16 16.6 °C 12.8 °C 1002.9 hPa NNW 5.0 km/h 11.1 km/h 78% 0.0 mm 0 W/m2
20:21 16.5 °C 12.7 °C 1002.6 hPa NNW 3.5 km/h 11.1 km/h 78% 0.0 mm 0 W/m2
20:26 16.4 °C 12.6 °C 1002.6 hPa NNW 7.2 km/h 13.4 km/h 78% 0.0 mm 0 W/m2
20:31 16.4 °C 12.6 °C 1002.9 hPa NNW 12.2 km/h 17.2 km/h 78% 0.0 mm 0 W/m2
20:36 16.4 °C 12.4 °C 1002.6 hPa North 8.7 km/h 17.2 km/h 77% 0.0 mm 0 W/m2
20:41 16.4 °C 12.4 °C 1002.6 hPa NNW 8.7 km/h 17.2 km/h 77% 0.0 mm 0 W/m2
20:46 16.2 °C 12.4 °C 1002.9 hPa NNW 7.2 km/h 14.8 km/h 78% 0.0 mm 0 W/m2
20:52 16.0 °C 12.4 °C 1003.3 hPa NW 5.0 km/h 12.2 km/h 79% 0.0 mm 0 W/m2
20:57 15.8 °C 12.6 °C 1003.3 hPa NW 6.1 km/h 11.1 km/h 81% 0.0 mm 0 W/m2
21:02 15.7 °C 12.7 °C 1003.3 hPa NNW 6.1 km/h 11.1 km/h 82% 0.0 mm 0 W/m2
21:07 15.7 °C 12.7 °C 1003.3 hPa NNW 5.0 km/h 9.7 km/h 82% 0.0 mm 0 W/m2
21:12 15.7 °C 12.7 °C 1003.3 hPa NNW 3.5 km/h 9.7 km/h 82% 0.0 mm 0 W/m2
21:17 15.6 °C 12.6 °C 1002.9 hPa NNW 1.1 km/h 9.7 km/h 82% 0.0 mm 0 W/m2
21:20 15.5 °C 12.6 °C 1003.3 hPa NNW 3.5 km/h 7.2 km/h 83% 0.0 mm 0 W/m2
21:30 15.3 °C 12.4 °C 1003.3 hPa North 1.1 km/h 5.0 km/h 83% 0.0 mm 0 W/m2
21:35 15.1 °C 12.2 °C 1003.3 hPa Calm   5.0 km/h 83% 0.0 mm 0 W/m2
21:40 14.9 °C 12.4 °C 1002.9 hPa NNE 1.1 km/h 3.5 km/h 85% 0.0 mm 0 W/m2
21:45 14.8 °C 12.3 °C 1002.9 hPa NNE 1.1 km/h 3.5 km/h 85% 0.0 mm 0 W/m2
21:50 14.7 °C 12.4 °C 1002.9 hPa North 1.1 km/h 3.5 km/h 86% 0.0 mm 0 W/m2
21:56 14.6 °C 12.3 °C 1002.9 hPa North 2.6 km/h 3.5 km/h 86% 0.0 mm 0 W/m2
22:01 14.6 °C 12.3 °C 1002.9 hPa Calm   3.5 km/h 86% 0.0 mm 0 W/m2
22:06 14.5 °C 12.2 °C 1002.9 hPa Calm   3.5 km/h 86% 0.0 mm 0 W/m2
22:11 14.5 °C 12.2 °C 1002.9 hPa Calm   3.5 km/h 86% 0.0 mm 0 W/m2
22:16 14.6 °C 12.3 °C 1002.9 hPa Calm   3.5 km/h 86% 0.0 mm 0 W/m2
22:21 14.4 °C 12.1 °C 1002.6 hPa NNW 1.1 km/h 3.5 km/h 86% 0.0 mm 0 W/m2
22:26 14.2 °C 11.9 °C 1002.6 hPa Calm   2.6 km/h 86% 0.0 mm 0 W/m2
22:31 13.9 °C 11.9 °C 1002.6 hPa Calm   2.6 km/h 88% 0.0 mm 0 W/m2
22:36 13.7 °C 11.8 °C 1002.6 hPa Calm   1.1 km/h 88% 0.0 mm 0 W/m2
22:41 13.6 °C 11.8 °C 1002.6 hPa Calm     89% 0.0 mm 0 W/m2
22:46 13.5 °C 11.7 °C 1002.6 hPa Calm     89% 0.0 mm 0 W/m2
22:51 13.4 °C 11.8 °C 1002.6 hPa Calm     90% 0.0 mm 0 W/m2
22:56 13.1 °C 11.3 °C 1002.6 hPa Calm     89% 0.0 mm 0 W/m2
23:01 13.0 °C 11.4 °C 1002.6 hPa Calm     90% 0.0 mm 0 W/m2
23:06 12.8 °C 11.4 °C 1002.6 hPa Calm     91% 0.0 mm 0 W/m2
23:11 12.6 °C 11.2 °C 1002.3 hPa Calm     91% 0.0 mm 0 W/m2
23:16 12.5 °C 11.2 °C 1002.3 hPa Calm     92% 0.0 mm 0 W/m2
23:21 12.5 °C 11.4 °C 1002.6 hPa Calm     93% 0.0 mm 0 W/m2
23:26 12.3 °C 11.4 °C 1002.3 hPa SW 1.1 km/h 2.6 km/h 94% 0.0 mm 0 W/m2
23:31 12.2 °C 11.3 °C 1002.3 hPa Calm   2.6 km/h 94% 0.0 mm 0 W/m2
23:36 12.1 °C 11.3 °C 1002.6 hPa Calm   2.6 km/h 95% 0.0 mm 0 W/m2
23:41 12.0 °C 11.2 °C 1002.6 hPa Calm     95% 0.0 mm 0 W/m2
23:51 11.8 °C 11.2 °C 1002.6 hPa Calm     96% 0.0 mm 0 W/m2
23:56 11.8 °C 11.2 °C 1002.3 hPa Calm     96% 0.0 mm 0 W/m2
Northern Hawkes Bay. New Zealand Historic Data
Compliments of Weather Underground - 2 mb